createdAt,value
2018-10-12T00:00:58.953Z,50.90
2018-10-12T00:03:27.127Z,52.67
2018-10-12T00:05:55.313Z,51.97
2018-10-12T00:08:23.474Z,52.57
2018-10-12T00:10:51.657Z,53.40
2018-10-12T00:13:19.807Z,49.07
2018-10-12T00:15:47.980Z,51.83
2018-10-12T00:18:16.171Z,52.00
2018-10-12T00:20:44.387Z,49.43
2018-10-12T00:23:12.599Z,50.33
2018-10-12T00:25:40.788Z,54.13
2018-10-12T00:28:08.963Z,51.07
2018-10-12T00:30:37.172Z,51.10
2018-10-12T00:33:05.403Z,51.27
2018-10-12T00:35:33.598Z,49.83
2018-10-12T00:38:01.776Z,49.70
2018-10-12T00:40:29.947Z,47.70
2018-10-12T00:42:58.142Z,50.73
2018-10-12T00:45:26.287Z,52.00
2018-10-12T00:48:00.135Z,49.00
2018-10-12T00:50:29.634Z,50.30
2018-10-12T00:52:57.808Z,51.57
2018-10-12T00:55:27.106Z,48.90
2018-10-12T00:57:55.287Z,50.50
2018-10-12T01:00:24.376Z,50.27
2018-10-12T01:02:52.535Z,51.80
2018-10-12T01:05:20.695Z,50.27
2018-10-12T01:07:48.863Z,54.07
2018-10-12T01:10:17.095Z,52.17
2018-10-12T01:12:45.638Z,52.17
2018-10-12T01:15:13.803Z,48.40
2018-10-12T01:17:41.982Z,50.73
2018-10-12T01:20:10.267Z,49.70
2018-10-12T01:22:38.426Z,49.60
2018-10-12T01:25:07.345Z,58.47
2018-10-12T01:27:35.529Z,49.60
2018-10-12T01:30:03.974Z,53.13
2018-10-12T01:32:37.511Z,49.10
2018-10-12T01:35:05.702Z,49.70
2018-10-12T01:37:33.938Z,50.73
2018-10-12T01:40:02.106Z,50.03
2018-10-12T01:42:30.280Z,50.07
2018-10-12T01:44:58.455Z,50.77
2018-10-12T01:47:26.628Z,49.70
2018-10-12T01:49:54.813Z,50.00
2018-10-12T01:52:22.977Z,52.10
2018-10-12T01:54:51.164Z,50.77
2018-10-12T01:57:19.328Z,49.17
2018-10-12T01:59:47.555Z,48.47
2018-10-12T02:02:15.718Z,50.37
2018-10-12T02:04:43.892Z,49.97
2018-10-12T02:07:12.079Z,49.20
2018-10-12T02:09:40.259Z,49.30
2018-10-12T02:12:08.431Z,50.43
2018-10-12T02:14:36.588Z,49.20
2018-10-12T02:17:04.753Z,47.50
2018-10-12T02:19:32.930Z,48.30
2018-10-12T02:22:01.096Z,50.17
2018-10-12T02:24:29.274Z,48.47
2018-10-12T02:26:57.455Z,48.70
2018-10-12T02:29:25.631Z,51.33
2018-10-12T02:31:53.807Z,49.17
2018-10-12T02:34:21.996Z,49.40
2018-10-12T02:36:50.148Z,48.30
2018-10-12T02:39:18.338Z,49.57
2018-10-12T02:41:46.503Z,48.97
2018-10-12T02:44:14.682Z,48.50
2018-10-12T02:46:42.863Z,48.90
2018-10-12T02:49:11.098Z,49.33
2018-10-12T02:51:39.264Z,50.10
2018-10-12T02:54:07.431Z,50.23
2018-10-12T02:56:35.609Z,52.33
2018-10-12T02:59:03.790Z,50.10
2018-10-12T03:01:31.961Z,48.97
2018-10-12T03:04:00.110Z,52.13
2018-10-12T03:06:28.278Z,49.10
2018-10-12T03:08:56.496Z,51.20
2018-10-12T03:11:24.755Z,48.10
2018-10-12T03:13:52.916Z,52.90
2018-10-12T03:16:21.069Z,51.33
2018-10-12T03:18:49.235Z,49.37
2018-10-12T03:21:17.410Z,48.90
2018-10-12T03:23:45.572Z,48.30
2018-10-12T03:26:13.722Z,48.60
2018-10-12T03:28:41.898Z,49.80
2018-10-12T03:31:10.104Z,49.17
2018-10-12T03:33:38.506Z,49.00
2018-10-12T03:36:07.050Z,50.30
2018-10-12T03:38:35.218Z,49.13
2018-10-12T03:41:03.393Z,49.50
2018-10-12T03:43:31.558Z,48.50
2018-10-12T03:45:59.753Z,50.53
2018-10-12T03:48:27.907Z,48.57
2018-10-12T03:50:56.082Z,51.73
2018-10-12T03:53:24.266Z,49.20
2018-10-12T03:55:52.443Z,49.40
2018-10-12T03:58:20.640Z,49.30
2018-10-12T04:00:48.831Z,49.50
2018-10-12T04:03:17.084Z,49.30
2018-10-12T04:05:45.284Z,49.50
2018-10-12T04:08:13.445Z,47.67
2018-10-12T04:10:41.620Z,47.90
2018-10-12T04:13:09.782Z,47.83
2018-10-12T04:15:37.946Z,48.90
2018-10-12T04:18:06.159Z,49.43
2018-10-12T04:20:34.322Z,49.47
2018-10-12T04:23:02.544Z,48.73
2018-10-12T04:25:30.739Z,50.20
2018-10-12T04:28:03.961Z,48.50
2018-10-12T04:30:32.130Z,49.10
2018-10-12T04:33:00.310Z,49.40
2018-10-12T04:35:28.491Z,49.53
2018-10-12T04:37:56.639Z,51.10
2018-10-12T04:41:29.754Z,50.77
2018-10-12T04:44:00.433Z,50.00
2018-10-12T04:46:32.917Z,47.97
2018-10-12T04:49:01.498Z,53.70
2018-10-12T04:51:49.998Z,49.80
2018-10-12T04:54:18.474Z,48.57
2018-10-12T04:56:47.278Z,51.10
2018-10-12T04:59:15.537Z,47.87
2018-10-12T05:01:43.750Z,51.03
2018-10-12T05:04:12.003Z,50.37
2018-10-12T05:06:40.163Z,51.87
2018-10-12T05:09:09.897Z,49.50
2018-10-12T05:11:38.443Z,53.20
2018-10-12T05:14:06.855Z,49.20
2018-10-12T05:16:35.539Z,52.20
2018-10-12T05:19:03.733Z,50.57
2018-10-12T05:21:32.092Z,50.43
2018-10-12T05:24:00.258Z,48.93
2018-10-12T05:26:34.899Z,49.47
2018-10-12T05:29:03.054Z,48.60
2018-10-12T05:31:31.210Z,50.10
2018-10-12T05:33:59.419Z,49.07
2018-10-12T05:36:27.602Z,49.97
2018-10-12T05:38:55.753Z,51.97
2018-10-12T05:41:24.203Z,49.23
2018-10-12T05:43:52.588Z,50.40
2018-10-12T05:46:20.654Z,53.13
2018-10-12T05:49:00.423Z,49.37
2018-10-12T05:51:28.643Z,49.87
2018-10-12T05:53:56.837Z,49.40
2018-10-12T05:56:28.314Z,50.87
2018-10-12T05:58:56.467Z,50.57
2018-10-12T06:01:24.786Z,48.97
2018-10-12T06:03:52.898Z,49.37
2018-10-12T06:06:21.070Z,48.90
2018-10-12T06:08:49.230Z,48.37
2018-10-12T06:11:17.461Z,50.00
2018-10-12T06:13:45.864Z,48.90
2018-10-12T06:16:14.126Z,50.57
2018-10-12T06:18:42.324Z,48.90
2018-10-12T06:21:10.477Z,48.27
2018-10-12T06:23:38.685Z,49.13
2018-10-12T06:26:06.813Z,54.60
2018-10-12T06:28:34.974Z,56.13
2018-10-12T06:31:03.168Z,52.00
2018-10-12T06:33:31.371Z,49.30
2018-10-12T06:35:59.535Z,51.30
2018-10-12T06:38:27.723Z,49.17
2018-10-12T06:40:55.888Z,50.60
2018-10-12T06:43:24.069Z,49.03
2018-10-12T06:45:52.233Z,51.17
2018-10-12T06:48:20.468Z,51.67
2018-10-12T06:50:48.638Z,53.93
2018-10-12T06:53:16.857Z,51.07
2018-10-12T06:55:45.038Z,50.80
2018-10-12T06:58:13.215Z,52.53
2018-10-12T07:00:41.376Z,53.30
2018-10-12T07:03:09.681Z,53.30
2018-10-12T07:05:37.752Z,51.70
2018-10-12T07:08:05.894Z,53.70
2018-10-12T07:10:34.042Z,52.93
2018-10-12T07:13:02.219Z,54.57
2018-10-12T07:15:30.399Z,52.90
2018-10-12T07:17:58.550Z,52.27
2018-10-12T07:20:26.686Z,50.57
2018-10-12T07:22:54.942Z,49.30
2018-10-12T07:25:23.087Z,51.80
2018-10-12T07:27:51.239Z,52.70
2018-10-12T07:30:19.409Z,52.80
2018-10-12T07:32:47.561Z,51.70
2018-10-12T07:35:15.711Z,51.80
2018-10-12T07:37:43.938Z,53.53
2018-10-12T07:40:12.043Z,56.03
2018-10-12T07:42:40.206Z,51.50
2018-10-12T07:45:08.703Z,54.23
2018-10-12T07:47:36.880Z,52.93
2018-10-12T07:50:05.087Z,53.73
2018-10-12T07:52:33.254Z,52.90
2018-10-12T07:55:01.430Z,52.37
2018-10-12T07:57:30.366Z,50.90
2018-10-12T07:59:59.347Z,51.47
2018-10-12T08:02:27.525Z,50.60
2018-10-12T08:04:55.691Z,50.00
2018-10-12T08:07:23.866Z,50.87
2018-10-12T08:09:52.016Z,56.13
2018-10-12T08:12:20.220Z,51.23
2018-10-12T08:14:48.377Z,56.17
2018-10-12T08:17:16.510Z,51.60
2018-10-12T08:19:44.696Z,49.70
2018-10-12T08:22:15.934Z,51.80
2018-10-12T08:24:44.083Z,52.27
2018-10-12T08:27:12.395Z,51.77
2018-10-12T08:29:40.451Z,51.10
2018-10-12T08:32:08.316Z,52.20
2018-10-12T08:34:36.471Z,51.23
2018-10-12T08:37:04.602Z,51.10
2018-10-12T08:42:07.574Z,50.70
2018-10-12T08:44:35.762Z,50.27
2018-10-12T08:47:03.922Z,51.50
2018-10-12T08:49:38.899Z,51.13
2018-10-12T08:52:13.458Z,50.60
2018-10-12T08:54:41.640Z,49.83
2018-10-12T08:57:09.802Z,52.97
2018-10-12T08:59:37.967Z,51.60
2018-10-12T09:02:06.711Z,50.60
2018-10-12T09:04:34.884Z,50.67
2018-10-12T09:07:03.045Z,50.83
2018-10-12T09:09:31.211Z,51.43
2018-10-12T09:11:59.544Z,54.50
2018-10-12T09:14:27.711Z,51.30
2018-10-12T09:16:55.870Z,50.87
2018-10-12T09:19:24.078Z,49.00
2018-10-12T09:21:52.294Z,50.10
2018-10-12T09:24:20.395Z,52.67
2018-10-12T09:26:48.563Z,55.10
2018-10-12T09:29:16.730Z,53.27
2018-10-12T09:31:44.878Z,49.67
2018-10-12T09:34:13.062Z,50.23
2018-10-12T09:36:41.331Z,50.20
2018-10-12T09:39:09.441Z,50.43
2018-10-12T09:41:37.601Z,49.60
2018-10-12T09:44:05.812Z,50.20
2018-10-12T09:46:33.950Z,50.73
2018-10-12T09:49:02.186Z,49.90
2018-10-12T09:51:30.367Z,49.03
2018-10-12T09:53:58.542Z,54.80
2018-10-12T09:56:26.712Z,49.17
2018-10-12T09:58:55.001Z,50.87
2018-10-12T10:01:28.625Z,49.87
2018-10-12T10:04:02.321Z,48.67
2018-10-12T10:06:30.447Z,50.10
2018-10-12T10:08:58.694Z,48.77
2018-10-12T10:11:26.840Z,51.10
2018-10-12T10:13:55.012Z,48.80
2018-10-12T10:16:23.163Z,47.80
2018-10-12T10:18:51.324Z,50.30
2018-10-12T10:21:19.699Z,48.63
2018-10-12T10:23:47.858Z,50.80
2018-10-12T10:26:16.030Z,49.10
2018-10-12T10:28:44.214Z,47.20
2018-10-12T10:31:12.395Z,48.60
2018-10-12T10:33:40.579Z,48.37
2018-10-12T10:36:08.747Z,48.50
2018-10-12T10:38:36.919Z,48.10
2018-10-12T10:41:05.155Z,47.43
2018-10-12T10:43:33.299Z,47.30
2018-10-12T10:46:01.512Z,47.30
2018-10-12T10:48:29.663Z,49.93
2018-10-12T10:50:57.832Z,47.60
2018-10-12T10:53:26.018Z,48.23
2018-10-12T10:55:54.138Z,49.77
2018-10-12T10:58:22.334Z,47.27
2018-10-12T11:00:50.620Z,48.70
2018-10-12T11:03:18.716Z,47.17
2018-10-12T11:05:46.895Z,49.37
2018-10-12T11:08:15.062Z,47.00
2018-10-12T11:10:43.232Z,47.30
2018-10-12T11:13:11.378Z,46.90
2018-10-12T11:15:39.597Z,48.77
2018-10-12T11:18:07.735Z,47.17
2018-10-12T11:20:35.883Z,46.30
2018-10-12T11:23:04.064Z,46.27
2018-10-12T11:25:32.210Z,47.40
2018-10-12T11:28:00.382Z,49.17
2018-10-12T11:30:28.630Z,47.97
2018-10-12T11:32:56.912Z,47.20
2018-10-12T11:35:24.970Z,46.93
2018-10-12T11:37:53.184Z,46.53
2018-10-12T11:40:21.372Z,47.90
2018-10-12T11:43:00.839Z,46.67
2018-10-12T11:45:29.142Z,46.80
2018-10-12T11:47:57.203Z,47.00
2018-10-12T11:50:25.378Z,48.20
2018-10-12T11:52:53.565Z,46.60
2018-10-12T11:55:21.739Z,47.30
2018-10-12T11:57:49.882Z,47.10
2018-10-12T12:00:18.054Z,46.07
2018-10-12T12:02:46.697Z,46.67
2018-10-12T12:05:21.557Z,46.37
2018-10-12T12:07:49.743Z,47.10
2018-10-12T12:10:17.914Z,46.57
2018-10-12T12:12:46.142Z,48.00
2018-10-12T12:15:14.392Z,46.97
2018-10-12T12:17:42.557Z,46.90
2018-10-12T12:20:10.735Z,48.47
2018-10-12T12:22:38.903Z,46.80
2018-10-12T12:25:07.367Z,47.97
2018-10-12T12:27:35.515Z,46.50
2018-10-12T12:30:03.688Z,46.87
2018-10-12T12:32:31.855Z,47.07
2018-10-12T12:35:00.192Z,46.80
2018-10-12T12:37:28.159Z,47.10
2018-10-12T12:39:56.345Z,46.73
2018-10-12T12:42:24.506Z,49.20
2018-10-12T12:44:52.659Z,46.90
2018-10-12T12:47:20.868Z,51.10
2018-10-12T12:49:48.980Z,47.63
2018-10-12T12:52:17.155Z,48.80
2018-10-12T12:54:45.334Z,47.80
2018-10-12T12:57:13.468Z,46.00
2018-10-12T12:59:41.627Z,46.67
2018-10-12T13:02:09.795Z,48.10
2018-10-12T13:04:37.973Z,46.27
2018-10-12T13:07:06.132Z,47.27
2018-10-12T13:09:34.304Z,47.17
2018-10-12T13:12:02.486Z,46.90
2018-10-12T13:14:30.657Z,47.37
2018-10-12T13:16:58.834Z,46.77
2018-10-12T13:19:27.001Z,50.23
2018-10-12T13:21:55.150Z,47.70
2018-10-12T13:24:23.299Z,47.17
2018-10-12T13:26:51.459Z,46.93
2018-10-12T13:29:19.635Z,46.97
2018-10-12T13:31:47.854Z,50.80
2018-10-12T13:34:15.967Z,46.70
2018-10-12T13:36:44.138Z,47.67
2018-10-12T13:39:13.211Z,47.17
2018-10-12T13:41:41.799Z,46.50
2018-10-12T13:44:10.378Z,47.87
2018-10-12T13:46:38.614Z,47.17
2018-10-12T13:49:07.074Z,46.97
2018-10-12T13:51:35.211Z,48.13
2018-10-12T13:54:03.487Z,47.87
2018-10-12T13:56:31.638Z,47.67
2018-10-12T13:58:59.826Z,49.73
2018-10-12T14:01:27.971Z,46.90
2018-10-12T14:03:56.151Z,46.30
2018-10-12T14:06:24.321Z,49.77
2018-10-12T14:08:52.514Z,47.30
2018-10-12T14:11:20.691Z,48.20
2018-10-12T14:13:48.861Z,46.80
2018-10-12T14:16:17.482Z,46.90
2018-10-12T14:18:45.712Z,47.07
2018-10-12T14:21:20.432Z,48.37
2018-10-12T14:23:48.562Z,46.97
2018-10-12T14:26:16.703Z,47.13
2018-10-12T14:28:44.874Z,46.80
2018-10-12T14:31:13.027Z,47.80
2018-10-12T14:33:41.201Z,47.00
2018-10-12T14:36:09.386Z,53.17
2018-10-12T14:38:38.398Z,47.27
2018-10-12T14:41:06.703Z,47.80
2018-10-12T14:43:34.883Z,48.03
2018-10-12T14:46:03.027Z,48.17
2018-10-12T14:48:31.220Z,46.50
2018-10-12T14:50:59.349Z,46.37
2018-10-12T14:53:27.525Z,49.40
2018-10-12T14:55:55.629Z,49.40
2018-10-12T14:58:23.799Z,45.90
2018-10-12T15:00:51.933Z,47.30
2018-10-12T15:03:20.253Z,46.50
2018-10-12T15:05:48.409Z,46.67
2018-10-12T15:08:16.582Z,46.30
2018-10-12T15:10:44.729Z,50.10
2018-10-12T15:13:12.979Z,46.93
2018-10-12T15:15:41.143Z,48.00
2018-10-12T15:18:09.297Z,50.80
2018-10-12T15:20:37.440Z,46.77
2018-10-12T15:23:05.582Z,47.00
2018-10-12T15:25:33.810Z,47.43
2018-10-12T15:28:01.877Z,46.37
2018-10-12T15:30:30.051Z,47.27
2018-10-12T15:32:58.209Z,46.87
2018-10-12T15:35:26.379Z,47.67
2018-10-12T15:37:54.554Z,47.00
2018-10-12T15:40:22.758Z,47.60
2018-10-12T15:42:51.039Z,48.00
2018-10-12T15:45:19.078Z,48.87
2018-10-12T15:47:47.250Z,48.17
2018-10-12T15:50:15.441Z,47.40
2018-10-12T15:52:43.614Z,47.87
2018-10-12T15:55:11.771Z,50.03
2018-10-12T15:57:39.931Z,48.37
2018-10-12T16:00:08.485Z,48.40
2018-10-12T16:02:36.641Z,47.90
2018-10-12T16:05:04.864Z,46.90
2018-10-12T16:07:32.992Z,49.37
2018-10-12T16:10:01.171Z,48.20
2018-10-12T16:12:29.357Z,49.10
2018-10-12T16:14:57.518Z,47.90
2018-10-12T16:17:25.690Z,47.83
2018-10-12T16:19:53.834Z,49.20
2018-10-12T16:22:21.974Z,52.33
2018-10-12T16:25:01.613Z,54.00
2018-10-12T16:27:29.771Z,58.40
2018-10-12T16:29:57.925Z,58.63
2018-10-12T16:32:26.086Z,48.83
2018-10-12T16:34:54.309Z,48.83
2018-10-12T16:37:22.459Z,47.87
2018-10-12T16:39:50.603Z,49.03
2018-10-12T16:42:18.771Z,47.33
2018-10-12T16:44:47.016Z,47.20
2018-10-12T16:47:15.258Z,48.23
2018-10-12T16:49:43.486Z,49.10
2018-10-12T16:52:11.700Z,50.03
2018-10-12T16:54:39.842Z,49.10
2018-10-12T16:57:09.127Z,48.27
2018-10-12T16:59:37.319Z,48.57
2018-10-12T17:02:05.655Z,51.10
2018-10-12T17:04:33.863Z,49.00
2018-10-12T17:07:01.979Z,51.20
2018-10-12T17:09:30.259Z,49.60
2018-10-12T17:11:58.485Z,49.70
2018-10-12T17:14:26.747Z,48.00
2018-10-12T17:16:55.043Z,50.50
2018-10-12T17:22:11.711Z,49.93
2018-10-12T17:24:40.305Z,52.17
2018-10-12T17:27:09.024Z,50.53
2018-10-12T17:29:37.575Z,57.30
2018-10-12T17:32:06.127Z,54.17
2018-10-12T17:34:34.517Z,54.73
2018-10-12T17:37:03.207Z,53.67
2018-10-12T17:42:21.778Z,50.57
2018-10-12T17:44:50.241Z,51.83
2018-10-12T17:47:18.564Z,53.87
2018-10-12T17:49:46.844Z,51.90
2018-10-12T17:52:15.160Z,51.60
2018-10-12T17:54:43.574Z,50.10
2018-10-12T17:57:11.934Z,52.33
2018-10-12T17:59:40.434Z,50.70
2018-10-12T18:02:08.796Z,51.67
2018-10-12T18:04:37.123Z,50.23
2018-10-12T18:07:05.642Z,48.90
2018-10-12T18:09:34.075Z,50.10
2018-10-12T18:12:02.538Z,49.50
2018-10-12T18:14:30.936Z,48.80
2018-10-12T18:16:59.387Z,54.23
2018-10-12T18:19:27.701Z,74.80
2018-10-12T18:21:56.078Z,64.53
2018-10-12T18:24:24.533Z,61.60
2018-10-12T18:26:52.899Z,51.43
2018-10-12T18:29:21.318Z,49.80
2018-10-12T18:31:49.794Z,54.80
2018-10-12T18:34:18.171Z,50.37
2018-10-12T18:36:46.646Z,50.80
2018-10-12T18:39:15.025Z,63.77
2018-10-12T18:41:43.424Z,50.70
2018-10-12T18:44:11.689Z,52.73
2018-10-12T18:46:39.981Z,49.00
2018-10-12T18:49:08.282Z,48.30
2018-10-12T18:51:36.770Z,49.57
2018-10-12T18:54:05.160Z,49.10
2018-10-12T18:56:33.663Z,52.10
2018-10-12T18:59:02.113Z,49.47
2018-10-12T19:01:30.567Z,51.27
2018-10-12T19:03:59.082Z,51.00
2018-10-12T19:06:27.641Z,49.40
2018-10-12T19:08:55.872Z,50.47
2018-10-12T19:11:24.322Z,49.30
2018-10-12T19:14:00.889Z,55.50
2018-10-12T19:16:44.410Z,54.33
2018-10-12T19:19:12.616Z,52.60
2018-10-12T19:21:48.698Z,49.67
2018-10-12T19:24:17.052Z,52.10
2018-10-12T19:26:47.971Z,55.80
2018-10-12T19:29:17.138Z,56.37
2018-10-12T19:31:45.988Z,58.90
2018-10-12T19:34:14.281Z,52.93
2018-10-12T19:36:42.576Z,51.97
2018-10-12T19:39:10.731Z,51.20
2018-10-12T19:41:38.884Z,52.80
2018-10-12T19:44:07.839Z,56.80
2018-10-12T19:46:35.974Z,54.87
2018-10-12T19:49:04.105Z,55.03
2018-10-12T19:51:32.271Z,77.77
2018-10-12T19:54:00.455Z,87.67
2018-10-12T19:56:28.628Z,70.70
2018-10-12T19:58:56.839Z,51.80
2018-10-12T20:01:24.963Z,49.67
2018-10-12T20:03:53.223Z,51.00
2018-10-12T20:06:21.389Z,50.70
2018-10-12T20:08:49.538Z,49.27
2018-10-12T20:11:17.718Z,50.90
2018-10-12T20:13:45.890Z,51.30
2018-10-12T20:16:14.058Z,49.30
2018-10-12T20:18:42.214Z,49.50
2018-10-12T20:21:10.417Z,49.27
2018-10-12T20:23:38.593Z,53.50
2018-10-12T20:26:06.758Z,48.43
2018-10-12T20:28:34.892Z,49.60
2018-10-12T20:31:03.045Z,52.30
2018-10-12T20:33:31.231Z,49.80
2018-10-12T20:35:59.404Z,50.20
2018-10-12T20:38:27.536Z,51.07
2018-10-12T20:40:55.705Z,54.90
2018-10-12T20:43:23.886Z,49.87
2018-10-12T20:45:52.057Z,52.23
2018-10-12T20:48:20.246Z,52.27
2018-10-12T20:50:48.482Z,54.80
2018-10-12T20:53:16.549Z,50.63
2018-10-12T20:55:44.772Z,53.47
2018-10-12T20:58:15.503Z,49.90
2018-10-12T21:00:44.327Z,53.67
2018-10-12T21:03:12.534Z,51.30
2018-10-12T21:05:40.933Z,48.33
2018-10-12T21:08:09.098Z,52.10
2018-10-12T21:10:37.246Z,49.77
2018-10-12T21:13:05.607Z,50.60
2018-10-12T21:15:33.763Z,49.50
2018-10-12T21:18:02.065Z,50.67
2018-10-12T21:20:30.167Z,51.40
2018-10-12T21:22:58.303Z,55.03
2018-10-12T21:25:26.515Z,51.07
2018-10-12T21:27:54.731Z,49.80
2018-10-12T21:30:22.892Z,49.07
2018-10-12T21:32:51.043Z,53.50
2018-10-12T21:35:19.210Z,50.40
2018-10-12T21:37:47.375Z,49.90
2018-10-12T21:40:15.570Z,52.20
2018-10-12T21:42:43.709Z,49.63
2018-10-12T21:45:11.864Z,49.40
2018-10-12T21:47:40.060Z,52.27
2018-10-12T21:50:08.263Z,48.97
2018-10-12T21:52:36.418Z,50.33
2018-10-12T21:55:04.801Z,51.30
2018-10-12T21:57:32.969Z,50.20
2018-10-12T22:00:01.447Z,52.70
2018-10-12T22:02:29.510Z,60.70
2018-10-12T22:04:57.707Z,96.17
2018-10-12T22:07:25.917Z,67.57
2018-10-12T22:09:54.013Z,51.67
2018-10-12T22:12:22.161Z,49.90
2018-10-12T22:14:50.357Z,48.07
2018-10-12T22:17:18.559Z,48.70
2018-10-12T22:19:46.802Z,48.27
2018-10-12T22:22:15.006Z,48.10
2018-10-12T22:24:43.190Z,49.20
2018-10-12T22:27:11.379Z,48.27
2018-10-12T22:29:39.539Z,47.83
2018-10-12T22:32:07.734Z,49.40
2018-10-12T22:34:35.906Z,51.40
2018-10-12T22:37:04.068Z,49.47
2018-10-12T22:39:32.227Z,48.10
2018-10-12T22:42:00.377Z,50.27
2018-10-12T22:44:28.734Z,48.90
2018-10-12T22:46:56.891Z,48.67
2018-10-12T22:49:25.029Z,49.80
2018-10-12T22:51:53.165Z,50.13
2018-10-12T22:54:21.290Z,49.70
2018-10-12T22:56:49.439Z,48.43
2018-10-12T22:59:17.620Z,49.57
2018-10-12T23:01:45.768Z,48.27
2018-10-12T23:04:13.976Z,52.03
2018-10-12T23:06:42.137Z,49.57
2018-10-12T23:09:10.750Z,51.40
2018-10-12T23:11:39.336Z,49.53
2018-10-12T23:14:07.817Z,51.70
2018-10-12T23:16:36.078Z,47.93
2018-10-12T23:19:04.243Z,49.23
2018-10-12T23:21:32.393Z,50.10
2018-10-12T23:24:00.553Z,58.90
2018-10-12T23:26:28.879Z,50.17
2018-10-12T23:28:57.251Z,49.00
2018-10-12T23:31:25.409Z,49.03
2018-10-12T23:34:05.074Z,48.90
2018-10-12T23:36:33.214Z,48.50
2018-10-12T23:39:01.838Z,48.67
2018-10-12T23:41:30.026Z,49.47
2018-10-12T23:43:58.386Z,48.13
2018-10-12T23:46:26.870Z,47.97
2018-10-12T23:48:55.247Z,47.60
2018-10-12T23:51:23.468Z,48.30
2018-10-12T23:53:51.650Z,48.80
2018-10-12T23:58:54.482Z,49.03
